sensor_id;sensor_type;location;lat;lon;timestamp;pressure;altitude;pressure_sealevel;temperature;humidity
7441;BME280;29616;51.950;8.572;2023-06-26T00:02:01;99846.69;;;20.39;100.00
7441;BME280;29616;51.950;8.572;2023-06-26T00:04:31;99852.81;;;20.48;100.00
7441;BME280;29616;51.950;8.572;2023-06-26T00:07:00;99843.09;;;20.32;100.00
7441;BME280;29616;51.950;8.572;2023-06-26T00:09:29;99852.84;;;20.41;100.00
7441;BME280;29616;51.950;8.572;2023-06-26T00:11:57;99850.38;;;20.27;100.00
7441;BME280;29616;51.950;8.572;2023-06-26T00:14:26;99832.31;;;20.05;100.00
7441;BME280;29616;51.950;8.572;2023-06-26T00:16:56;99828.41;;;20.19;100.00
7441;BME280;29616;51.950;8.572;2023-06-26T00:19:27;99838.03;;;20.10;100.00
7441;BME280;29616;51.950;8.572;2023-06-26T00:21:56;99838.44;;;20.20;100.00
7441;BME280;29616;51.950;8.572;2023-06-26T00:24:24;99839.91;;;20.29;100.00
7441;BME280;29616;51.950;8.572;2023-06-26T00:26:53;99838.44;;;20.26;100.00
7441;BME280;29616;51.950;8.572;2023-06-26T00:29:22;99845.25;;;20.17;100.00
7441;BME280;29616;51.950;8.572;2023-06-26T00:31:51;99832.91;;;20.13;100.00
7441;BME280;29616;51.950;8.572;2023-06-26T00:34:20;99840.63;;;20.11;100.00
7441;BME280;29616;51.950;8.572;2023-06-26T00:36:51;99825.19;;;20.22;100.00
7441;BME280;29616;51.950;8.572;2023-06-26T00:39:21;99828.03;;;20.09;100.00
7441;BME280;29616;51.950;8.572;2023-06-26T00:41:54;99835.16;;;19.91;100.00
7441;BME280;29616;51.950;8.572;2023-06-26T00:44:23;99818.88;;;20.02;100.00
7441;BME280;29616;51.950;8.572;2023-06-26T00:46:52;99824.47;;;19.95;100.00
7441;BME280;29616;51.950;8.572;2023-06-26T00:49:24;99827.94;;;19.84;100.00
7441;BME280;29616;51.950;8.572;2023-06-26T00:51:54;99814.50;;;19.81;100.00
7441;BME280;29616;51.950;8.572;2023-06-26T00:54:25;99822.81;;;19.81;100.00
7441;BME280;29616;51.950;8.572;2023-06-26T00:56:53;99809.63;;;19.70;100.00
7441;BME280;29616;51.950;8.572;2023-06-26T00:59:21;99804.94;;;19.77;100.00
7441;BME280;29616;51.950;8.572;2023-06-26T01:01:51;99795.75;;;19.76;100.00
7441;BME280;29616;51.950;8.572;2023-06-26T01:04:21;99803.78;;;19.91;100.00
7441;BME280;29616;51.950;8.572;2023-06-26T01:06:59;99799.94;;;19.92;100.00
7441;BME280;29616;51.950;8.572;2023-06-26T01:09:30;99787.41;;;19.83;100.00
7441;BME280;29616;51.950;8.572;2023-06-26T01:11:59;99804.25;;;19.81;100.00
7441;BME280;29616;51.950;8.572;2023-06-26T01:14:27;99794.28;;;19.74;100.00
7441;BME280;29616;51.950;8.572;2023-06-26T01:16:57;99796.44;;;19.72;100.00
7441;BME280;29616;51.950;8.572;2023-06-26T01:19:29;99787.06;;;19.60;100.00
7441;BME280;29616;51.950;8.572;2023-06-26T01:22:10;99783.66;;;19.58;100.00
7441;BME280;29616;51.950;8.572;2023-06-26T01:24:58;99786.69;;;19.50;100.00
7441;BME280;29616;51.950;8.572;2023-06-26T01:27:32;99779.44;;;19.49;100.00
7441;BME280;29616;51.950;8.572;2023-06-26T01:30:04;99776.44;;;19.50;100.00
7441;BME280;29616;51.950;8.572;2023-06-26T01:32:35;99781.09;;;19.56;100.00
7441;BME280;29616;51.950;8.572;2023-06-26T01:35:08;99765.13;;;19.52;100.00
7441;BME280;29616;51.950;8.572;2023-06-26T01:37:36;99776.66;;;19.49;100.00
7441;BME280;29616;51.950;8.572;2023-06-26T01:40:06;99779.44;;;19.49;100.00
7441;BME280;29616;51.950;8.572;2023-06-26T01:42:38;99770.06;;;19.30;100.00
7441;BME280;29616;51.950;8.572;2023-06-26T01:45:12;99748.75;;;19.30;100.00
7441;BME280;29616;51.950;8.572;2023-06-26T01:47:47;99757.69;;;19.32;100.00
7441;BME280;29616;51.950;8.572;2023-06-26T01:50:18;99759.63;;;19.25;100.00
7441;BME280;29616;51.950;8.572;2023-06-26T01:53:00;99761.78;;;19.23;100.00
7441;BME280;29616;51.950;8.572;2023-06-26T01:55:35;99754.53;;;19.22;100.00
7441;BME280;29616;51.950;8.572;2023-06-26T01:58:09;99754.34;;;19.17;100.00
7441;BME280;29616;51.950;8.572;2023-06-26T02:00:39;99759.00;;;19.17;100.00
7441;BME280;29616;51.950;8.572;2023-06-26T02:03:10;99747.75;;;19.12;100.00
7441;BME280;29616;51.950;8.572;2023-06-26T02:05:40;99747.53;;;19.13;100.00
7441;BME280;29616;51.950;8.572;2023-06-26T02:08:14;99747.75;;;19.12;100.00
7441;BME280;29616;51.950;8.572;2023-06-26T02:10:49;99743.06;;;19.06;100.00
7441;BME280;29616;51.950;8.572;2023-06-26T02:13:19;99725.41;;;18.87;100.00
7441;BME280;29616;51.950;8.572;2023-06-26T02:15:49;99727.94;;;19.02;100.00
7441;BME280;29616;51.950;8.572;2023-06-26T02:18:20;99737.13;;;18.96;100.00
7441;BME280;29616;51.950;8.572;2023-06-26T02:20:51;99728.81;;;19.02;100.00
7441;BME280;29616;51.950;8.572;2023-06-26T02:23:21;99726.91;;;19.03;100.00
7441;BME280;29616;51.950;8.572;2023-06-26T02:25:50;99724.09;;;19.09;100.00
7441;BME280;29616;51.950;8.572;2023-06-26T02:28:20;99720.28;;;19.10;100.00
7441;BME280;29616;51.950;8.572;2023-06-26T02:30:50;99732.56;;;19.41;100.00
7441;BME280;29616;51.950;8.572;2023-06-26T02:33:18;99729.78;;;19.27;100.00
7441;BME280;29616;51.950;8.572;2023-06-26T02:35:49;99729.84;;;19.14;100.00
7441;BME280;29616;51.950;8.572;2023-06-26T02:38:19;99719.56;;;19.34;100.00
7441;BME280;29616;51.950;8.572;2023-06-26T02:40:47;99720.63;;;19.33;100.00
7441;BME280;29616;51.950;8.572;2023-06-26T02:43:16;99718.94;;;19.19;100.00
7441;BME280;29616;51.950;8.572;2023-06-26T02:45:47;99724.50;;;19.26;100.00
7441;BME280;29616;51.950;8.572;2023-06-26T02:48:16;99710.16;;;19.35;100.00
7441;BME280;29616;51.950;8.572;2023-06-26T02:50:46;99710.22;;;19.22;100.00
7441;BME280;29616;51.950;8.572;2023-06-26T02:53:15;99708.72;;;19.26;100.00
7441;BME280;29616;51.950;8.572;2023-06-26T02:55:46;99694.03;;;19.19;100.00
7441;BME280;29616;51.950;8.572;2023-06-26T02:58:17;99714.03;;;19.34;100.00
7441;BME280;29616;51.950;8.572;2023-06-26T03:00:47;99704.41;;;19.50;100.00
7441;BME280;29616;51.950;8.572;2023-06-26T03:03:18;99705.25;;;19.51;100.00
7441;BME280;29616;51.950;8.572;2023-06-26T03:05:48;99709.94;;;19.44;100.00
7441;BME280;29616;51.950;8.572;2023-06-26T03:08:18;99714.19;;;19.46;100.00
7441;BME280;29616;51.950;8.572;2023-06-26T03:10:48;99708.06;;;19.38;100.00
7441;BME280;29616;51.950;8.572;2023-06-26T03:13:17;99715.94;;;19.41;100.00
7441;BME280;29616;51.950;8.572;2023-06-26T03:15:47;99708.59;;;19.66;100.00
7441;BME280;29616;51.950;8.572;2023-06-26T03:18:16;99715.88;;;19.54;100.00
7441;BME280;29616;51.950;8.572;2023-06-26T03:20:46;99701.22;;;19.40;100.00
7441;BME280;29616;51.950;8.572;2023-06-26T03:23:17;99709.53;;;19.47;100.00
7441;BME280;29616;51.950;8.572;2023-06-26T03:25:48;99707.81;;;19.46;100.00
7441;BME280;29616;51.950;8.572;2023-06-26T03:28:29;99705.81;;;19.66;100.00
7441;BME280;29616;51.950;8.572;2023-06-26T03:31:00;99708.94;;;19.76;100.00
7441;BME280;29616;51.950;8.572;2023-06-26T03:33:29;99712.09;;;19.86;100.00
7441;BME280;29616;51.950;8.572;2023-06-26T03:35:58;99702.56;;;19.75;100.00
7441;BME280;29616;51.950;8.572;2023-06-26T03:38:26;99708.16;;;19.69;100.00
7441;BME280;29616;51.950;8.572;2023-06-26T03:40:58;99712.78;;;19.75;100.00
7441;BME280;29616;51.950;8.572;2023-06-26T03:43:27;99714.66;;;19.87;100.00
7441;BME280;29616;51.950;8.572;2023-06-26T03:46:15;99704.22;;;19.83;100.00
7441;BME280;29616;51.950;8.572;2023-06-26T03:48:46;99699.56;;;19.77;100.00
7441;BME280;29616;51.950;8.572;2023-06-26T03:51:16;99714.31;;;19.71;100.00
7441;BME280;29616;51.950;8.572;2023-06-26T03:53:47;99704.88;;;19.78;100.00
7441;BME280;29616;51.950;8.572;2023-06-26T03:56:15;99710.22;;;19.80;100.00
7441;BME280;29616;51.950;8.572;2023-06-26T03:58:47;99702.91;;;19.85;100.00
7441;BME280;29616;51.950;8.572;2023-06-26T04:01:17;99710.78;;;19.95;100.00
7441;BME280;29616;51.950;8.572;2023-06-26T04:03:50;99696.97;;;19.82;100.00
7441;BME280;29616;51.950;8.572;2023-06-26T04:06:19;99712.56;;;20.14;100.00
7441;BME280;29616;51.950;8.572;2023-06-26T04:08:49;99706.09;;;20.27;100.00
7441;BME280;29616;51.950;8.572;2023-06-26T04:11:18;99694.66;;;20.41;100.00
7441;BME280;29616;51.950;8.572;2023-06-26T04:13:47;99713.06;;;20.61;100.00
7441;BME280;29616;51.950;8.572;2023-06-26T04:16:19;99708.34;;;20.68;100.00
7441;BME280;29616;51.950;8.572;2023-06-26T04:18:50;99708.09;;;20.69;100.00
7441;BME280;29616;51.950;8.572;2023-06-26T04:21:19;99715.41;;;20.88;100.00
7441;BME280;29616;51.950;8.572;2023-06-26T04:23:48;99713.84;;;21.17;100.00
7441;BME280;29616;51.950;8.572;2023-06-26T04:26:19;99707.44;;;21.17;100.00
7441;BME280;29616;51.950;8.572;2023-06-26T04:28:48;99708.44;;;21.22;100.00
7441;BME280;29616;51.950;8.572;2023-06-26T04:31:20;99712.81;;;21.11;100.00
7441;BME280;29616;51.950;8.572;2023-06-26T04:33:51;99704.34;;;21.25;100.00
7441;BME280;29616;51.950;8.572;2023-06-26T04:36:22;99708.41;;;21.58;100.00
7441;BME280;29616;51.950;8.572;2023-06-26T04:38:51;99703.22;;;21.80;100.00
7441;BME280;29616;51.950;8.572;2023-06-26T04:41:19;99704.38;;;21.72;100.00
7441;BME280;29616;51.950;8.572;2023-06-26T04:43:49;99698.63;;;21.86;100.00
7441;BME280;29616;51.950;8.572;2023-06-26T04:46:20;99700.06;;;21.77;100.00
7441;BME280;29616;51.950;8.572;2023-06-26T04:48:49;99683.00;;;21.73;100.00
7441;BME280;29616;51.950;8.572;2023-06-26T04:51:19;99700.78;;;22.02;100.00
7441;BME280;29616;51.950;8.572;2023-06-26T04:53:48;99700.13;;;22.18;100.00
7441;BME280;29616;51.950;8.572;2023-06-26T04:56:16;99713.75;;;22.49;100.00
7441;BME280;29616;51.950;8.572;2023-06-26T04:58:47;99699.59;;;22.62;100.00
7441;BME280;29616;51.950;8.572;2023-06-26T05:01:16;99699.78;;;22.90;100.00
7441;BME280;29616;51.950;8.572;2023-06-26T05:03:48;99707.91;;;23.04;100.00
7441;BME280;29616;51.950;8.572;2023-06-26T05:06:17;99703.91;;;23.23;100.00
7441;BME280;29616;51.950;8.572;2023-06-26T05:08:46;99707.66;;;23.40;100.00
7441;BME280;29616;51.950;8.572;2023-06-26T05:11:15;99706.78;;;23.51;100.00
7441;BME280;29616;51.950;8.572;2023-06-26T05:13:45;99708.16;;;23.77;100.00
7441;BME280;29616;51.950;8.572;2023-06-26T05:16:15;99718.41;;;23.99;100.00
7441;BME280;29616;51.950;8.572;2023-06-26T05:18:45;99715.06;;;24.14;100.00
7441;BME280;29616;51.950;8.572;2023-06-26T05:21:16;99713.53;;;24.35;100.00
7441;BME280;29616;51.950;8.572;2023-06-26T05:23:47;99715.91;;;24.59;100.00
7441;BME280;29616;51.950;8.572;2023-06-26T05:26:17;99713.72;;;24.78;100.00
7441;BME280;29616;51.950;8.572;2023-06-26T05:28:49;99700.63;;;24.95;100.00
7441;BME280;29616;51.950;8.572;2023-06-26T05:31:18;99715.72;;;25.33;100.00
7441;BME280;29616;51.950;8.572;2023-06-26T05:33:46;99707.22;;;25.44;100.00
7441;BME280;29616;51.950;8.572;2023-06-26T05:36:19;99711.91;;;25.60;100.00
7441;BME280;29616;51.950;8.572;2023-06-26T05:38:48;99719.50;;;25.60;100.00
7441;BME280;29616;51.950;8.572;2023-06-26T05:41:20;99713.97;;;25.65;100.00
7441;BME280;29616;51.950;8.572;2023-06-26T05:43:50;99713.06;;;25.81;100.00
7441;BME280;29616;51.950;8.572;2023-06-26T05:46:22;99715.38;;;26.11;100.00
7441;BME280;29616;51.950;8.572;2023-06-26T05:48:50;99718.59;;;26.24;100.00
7441;BME280;29616;51.950;8.572;2023-06-26T05:51:21;99722.09;;;26.36;100.00
7441;BME280;29616;51.950;8.572;2023-06-26T05:53:50;99718.50;;;26.14;100.00
7441;BME280;29616;51.950;8.572;2023-06-26T05:56:19;99714.47;;;26.05;100.00
7441;BME280;29616;51.950;8.572;2023-06-26T05:58:50;99724.00;;;26.09;100.00
7441;BME280;29616;51.950;8.572;2023-06-26T06:01:21;99726.44;;;26.22;100.00
7441;BME280;29616;51.950;8.572;2023-06-26T06:03:53;99716.13;;;26.28;100.00
7441;BME280;29616;51.950;8.572;2023-06-26T06:06:23;99723.41;;;26.56;100.00
7441;BME280;29616;51.950;8.572;2023-06-26T06:08:53;99729.19;;;26.76;100.00
7441;BME280;29616;51.950;8.572;2023-06-26T06:11:22;99717.00;;;26.87;100.00
7441;BME280;29616;51.950;8.572;2023-06-26T06:13:52;99723.75;;;26.91;100.00
7441;BME280;29616;51.950;8.572;2023-06-26T06:16:21;99719.94;;;27.07;100.00
7441;BME280;29616;51.950;8.572;2023-06-26T06:18:51;99709.56;;;27.07;100.00
7441;BME280;29616;51.950;8.572;2023-06-26T06:21:19;99720.78;;;27.44;100.00
7441;BME280;29616;51.950;8.572;2023-06-26T06:23:51;99719.38;;;27.42;100.00
7441;BME280;29616;51.950;8.572;2023-06-26T06:26:19;99728.13;;;27.50;100.00
7441;BME280;29616;51.950;8.572;2023-06-26T06:28:49;99735.88;;;27.38;100.00
7441;BME280;29616;51.950;8.572;2023-06-26T06:31:19;99719.00;;;27.33;100.00
7441;BME280;29616;51.950;8.572;2023-06-26T06:33:48;99736.72;;;27.86;100.00
7441;BME280;29616;51.950;8.572;2023-06-26T06:36:18;99733.78;;;28.17;100.00
7441;BME280;29616;51.950;8.572;2023-06-26T06:38:46;99738.09;;;28.50;100.00
7441;BME280;29616;51.950;8.572;2023-06-26T06:41:20;99727.41;;;28.47;100.00
7441;BME280;29616;51.950;8.572;2023-06-26T06:43:49;99734.91;;;28.16;100.00
7441;BME280;29616;51.950;8.572;2023-06-26T06:46:19;99744.69;;;28.04;100.00
7441;BME280;29616;51.950;8.572;2023-06-26T06:48:49;99746.06;;;28.01;100.00
7441;BME280;29616;51.950;8.572;2023-06-26T06:51:18;99748.16;;;28.36;100.00
7441;BME280;29616;51.950;8.572;2023-06-26T06:53:48;99764.72;;;28.33;100.00
7441;BME280;29616;51.950;8.572;2023-06-26T06:56:20;99757.72;;;28.45;100.00
7441;BME280;29616;51.950;8.572;2023-06-26T06:58:48;99760.47;;;28.20;100.00
7441;BME280;29616;51.950;8.572;2023-06-26T07:01:18;99766.13;;;28.30;100.00
7441;BME280;29616;51.950;8.572;2023-06-26T07:03:47;99762.53;;;28.55;100.00
7441;BME280;29616;51.950;8.572;2023-06-26T07:06:18;99773.03;;;28.95;100.00
7441;BME280;29616;51.950;8.572;2023-06-26T07:08:47;99771.19;;;28.38;100.00
7441;BME280;29616;51.950;8.572;2023-06-26T07:11:16;99758.84;;;28.39;100.00
7441;BME280;29616;51.950;8.572;2023-06-26T07:13:48;99765.00;;;28.26;100.00
7441;BME280;29616;51.950;8.572;2023-06-26T07:16:18;99768.75;;;27.95;100.00
7441;BME280;29616;51.950;8.572;2023-06-26T07:18:49;99762.13;;;28.11;100.00
7441;BME280;29616;51.950;8.572;2023-06-26T07:21:20;99776.63;;;27.98;100.00
7441;BME280;29616;51.950;8.572;2023-06-26T07:23:53;99773.47;;;27.84;100.00
7441;BME280;29616;51.950;8.572;2023-06-26T07:26:23;99788.44;;;28.00;100.00
7441;BME280;29616;51.950;8.572;2023-06-26T07:29:12;99790.28;;;28.21;100.00
7441;BME280;29616;51.950;8.572;2023-06-26T07:31:42;99797.19;;;28.85;100.00
7441;BME280;29616;51.950;8.572;2023-06-26T07:34:13;99800.06;;;29.21;100.00
7441;BME280;29616;51.950;8.572;2023-06-26T07:36:42;99799.97;;;28.65;100.00
7441;BME280;29616;51.950;8.572;2023-06-26T07:39:12;99784.50;;;28.63;100.00
7441;BME280;29616;51.950;8.572;2023-06-26T07:41:49;99789.47;;;28.41;100.00
7441;BME280;29616;51.950;8.572;2023-06-26T07:44:20;99789.31;;;28.77;100.00
7441;BME280;29616;51.950;8.572;2023-06-26T07:46:50;99788.22;;;29.29;100.00
7441;BME280;29616;51.950;8.572;2023-06-26T07:49:21;99789.38;;;29.38;100.00
7441;BME280;29616;51.950;8.572;2023-06-26T07:51:52;99797.03;;;28.35;100.00
7441;BME280;29616;51.950;8.572;2023-06-26T07:54:20;99797.06;;;28.45;100.00
7441;BME280;29616;51.950;8.572;2023-06-26T07:56:55;99798.53;;;28.58;100.00
7441;BME280;29616;51.950;8.572;2023-06-26T07:59:27;99798.09;;;28.19;100.00
7441;BME280;29616;51.950;8.572;2023-06-26T08:01:58;99802.13;;;28.43;100.00
7441;BME280;29616;51.950;8.572;2023-06-26T08:04:28;99826.44;;;28.02;100.00
7441;BME280;29616;51.950;8.572;2023-06-26T08:07:00;99836.91;;;27.75;100.00
7441;BME280;29616;51.950;8.572;2023-06-26T08:09:32;99830.00;;;27.19;100.00
7441;BME280;29616;51.950;8.572;2023-06-26T08:12:02;99848.31;;;27.63;100.00
7441;BME280;29616;51.950;8.572;2023-06-26T08:14:35;99842.84;;;27.84;100.00
7441;BME280;29616;51.950;8.572;2023-06-26T08:17:05;99841.69;;;26.79;100.00
7441;BME280;29616;51.950;8.572;2023-06-26T08:19:35;99840.34;;;26.00;100.00
7441;BME280;29616;51.950;8.572;2023-06-26T08:22:05;99869.81;;;25.48;100.00
7441;BME280;29616;51.950;8.572;2023-06-26T08:24:36;99863.88;;;25.27;100.00
7441;BME280;29616;51.950;8.572;2023-06-26T08:27:06;99863.75;;;25.06;100.00
7441;BME280;29616;51.950;8.572;2023-06-26T08:29:37;99857.84;;;25.19;100.00
7441;BME280;29616;51.950;8.572;2023-06-26T08:32:06;99854.19;;;25.18;100.00
7441;BME280;29616;51.950;8.572;2023-06-26T08:34:37;99857.31;;;25.05;100.00
7441;BME280;29616;51.950;8.572;2023-06-26T08:37:07;99865.97;;;25.20;100.00
7441;BME280;29616;51.950;8.572;2023-06-26T08:39:39;99862.31;;;25.03;100.00
7441;BME280;29616;51.950;8.572;2023-06-26T08:42:08;99834.88;;;25.00;100.00
7441;BME280;29616;51.950;8.572;2023-06-26T08:44:37;99853.88;;;25.65;100.00
7441;BME280;29616;51.950;8.572;2023-06-26T08:47:27;99842.19;;;25.51;100.00
7441;BME280;29616;51.950;8.572;2023-06-26T08:50:07;99852.16;;;25.47;100.00
7441;BME280;29616;51.950;8.572;2023-06-26T08:52:43;99819.72;;;25.63;100.00
7441;BME280;29616;51.950;8.572;2023-06-26T08:55:15;99860.69;;;26.12;100.00
7441;BME280;29616;51.950;8.572;2023-06-26T08:57:44;99867.53;;;27.45;100.00
7441;BME280;29616;51.950;8.572;2023-06-26T09:00:17;99871.50;;;27.86;100.00
7441;BME280;29616;51.950;8.572;2023-06-26T09:02:47;99881.66;;;27.28;100.00
7441;BME280;29616;51.950;8.572;2023-06-26T09:05:18;99896.38;;;26.82;100.00
7441;BME280;29616;51.950;8.572;2023-06-26T09:07:48;99901.25;;;27.50;100.00
7441;BME280;29616;51.950;8.572;2023-06-26T09:10:19;99899.34;;;27.55;100.00
7441;BME280;29616;51.950;8.572;2023-06-26T09:12:49;99881.00;;;27.16;100.00
7441;BME280;29616;51.950;8.572;2023-06-26T09:15:20;99890.53;;;27.79;100.00
7441;BME280;29616;51.950;8.572;2023-06-26T09:17:50;99880.84;;;28.53;100.00
7441;BME280;29616;51.950;8.572;2023-06-26T09:20:20;99903.19;;;28.18;100.00
7441;BME280;29616;51.950;8.572;2023-06-26T09:22:48;99902.63;;;27.47;100.00
7441;BME280;29616;51.950;8.572;2023-06-26T09:25:17;99887.50;;;26.68;100.00
7441;BME280;29616;51.950;8.572;2023-06-26T09:27:50;99909.59;;;26.21;100.00
7441;BME280;29616;51.950;8.572;2023-06-26T09:30:22;99898.97;;;26.45;100.00
7441;BME280;29616;51.950;8.572;2023-06-26T09:32:54;99911.16;;;28.36;100.00
7441;BME280;29616;51.950;8.572;2023-06-26T09:35:22;99897.47;;;28.08;100.00
7441;BME280;29616;51.950;8.572;2023-06-26T09:37:52;99908.88;;;29.00;100.00
7441;BME280;29616;51.950;8.572;2023-06-26T09:40:21;99881.00;;;28.89;100.00
7441;BME280;29616;51.950;8.572;2023-06-26T09:42:50;99912.34;;;29.48;100.00
7441;BME280;29616;51.950;8.572;2023-06-26T09:45:21;99905.03;;;29.92;100.00
7441;BME280;29616;51.950;8.572;2023-06-26T09:47:52;99893.41;;;29.03;100.00
7441;BME280;29616;51.950;8.572;2023-06-26T09:50:22;99897.47;;;28.03;100.00
7441;BME280;29616;51.950;8.572;2023-06-26T09:52:55;99899.06;;;27.25;100.00
7441;BME280;29616;51.950;8.572;2023-06-26T09:55:25;99907.63;;;26.87;100.00
7441;BME280;29616;51.950;8.572;2023-06-26T09:57:57;99910.31;;;27.94;100.00
7441;BME280;29616;51.950;8.572;2023-06-26T10:00:32;99907.97;;;27.81;100.00
7441;BME280;29616;51.950;8.572;2023-06-26T10:03:01;99904.97;;;28.34;100.00
7441;BME280;29616;51.950;8.572;2023-06-26T10:05:30;99905.59;;;29.54;100.00
7441;BME280;29616;51.950;8.572;2023-06-26T10:08:01;99902.75;;;30.09;100.00
7441;BME280;29616;51.950;8.572;2023-06-26T10:10:33;99902.47;;;29.25;100.00
7441;BME280;29616;51.950;8.572;2023-06-26T10:13:08;99900.50;;;28.43;100.00
7441;BME280;29616;51.950;8.572;2023-06-26T10:15:45;99882.31;;;27.35;100.00
7441;BME280;29616;51.950;8.572;2023-06-26T10:18:17;99908.78;;;27.44;100.00
7441;BME280;29616;51.950;8.572;2023-06-26T10:20:50;99900.69;;;28.83;100.00
7441;BME280;29616;51.950;8.572;2023-06-26T10:23:20;99899.13;;;29.48;100.00
7441;BME280;29616;51.950;8.572;2023-06-26T10:25:54;99900.69;;;28.99;100.00
7441;BME280;29616;51.950;8.572;2023-06-26T10:28:25;99909.16;;;27.95;100.00
7441;BME280;29616;51.950;8.572;2023-06-26T10:31:01;99897.47;;;27.07;100.00
7441;BME280;29616;51.950;8.572;2023-06-26T10:33:34;99900.59;;;26.19;100.00
7441;BME280;29616;51.950;8.572;2023-06-26T10:36:16;99904.50;;;26.18;100.00
7441;BME280;29616;51.950;8.572;2023-06-26T10:38:49;99906.72;;;26.60;100.00
7441;BME280;29616;51.950;8.572;2023-06-26T10:41:20;99912.72;;;27.43;100.00
7441;BME280;29616;51.950;8.572;2023-06-26T10:43:51;99915.44;;;27.38;100.00
7441;BME280;29616;51.950;8.572;2023-06-26T10:46:22;99918.41;;;27.53;100.00
7441;BME280;29616;51.950;8.572;2023-06-26T10:48:58;99922.34;;;28.26;100.00
7441;BME280;29616;51.950;8.572;2023-06-26T10:51:28;99913.69;;;29.15;100.00
7441;BME280;29616;51.950;8.572;2023-06-26T10:54:00;99918.25;;;28.54;100.00
7441;BME280;29616;51.950;8.572;2023-06-26T10:56:41;99914.28;;;27.07;100.00
7441;BME280;29616;51.950;8.572;2023-06-26T10:59:18;99930.81;;;26.77;100.00
7441;BME280;29616;51.950;8.572;2023-06-26T11:01:57;99952.88;;;25.97;100.00
7441;BME280;29616;51.950;8.572;2023-06-26T11:04:39;99915.59;;;25.75;100.00
7441;BME280;29616;51.950;8.572;2023-06-26T11:07:19;99943.38;;;26.15;100.00
7441;BME280;29616;51.950;8.572;2023-06-26T11:09:56;99941.56;;;26.25;100.00
7441;BME280;29616;51.950;8.572;2023-06-26T11:12:38;99938.22;;;27.15;100.00
7441;BME280;29616;51.950;8.572;2023-06-26T11:15:09;99943.50;;;27.65;100.00
7441;BME280;29616;51.950;8.572;2023-06-26T11:17:41;99932.09;;;27.82;100.00
7441;BME280;29616;51.950;8.572;2023-06-26T11:20:14;99944.72;;;28.16;100.00
7441;BME280;29616;51.950;8.572;2023-06-26T11:22:45;99948.44;;;27.90;100.00
7441;BME280;29616;51.950;8.572;2023-06-26T11:25:14;99963.41;;;27.37;100.00
7441;BME280;29616;51.950;8.572;2023-06-26T11:27:45;99951.69;;;26.70;100.00
7441;BME280;29616;51.950;8.572;2023-06-26T11:30:24;99947.03;;;27.02;100.00
7441;BME280;29616;51.950;8.572;2023-06-26T11:33:05;99935.78;;;26.97;100.00
7441;BME280;29616;51.950;8.572;2023-06-26T11:35:36;99943.28;;;28.08;100.00
7441;BME280;29616;51.950;8.572;2023-06-26T11:38:06;99942.53;;;28.75;100.00
7441;BME280;29616;51.950;8.572;2023-06-26T11:40:37;99945.03;;;27.83;100.00
7441;BME280;29616;51.950;8.572;2023-06-26T11:43:06;99954.41;;;27.61;100.00
7441;BME280;29616;51.950;8.572;2023-06-26T11:45:37;99952.38;;;28.77;100.00
7441;BME280;29616;51.950;8.572;2023-06-26T11:48:09;99954.81;;;29.26;100.00
7441;BME280;29616;51.950;8.572;2023-06-26T11:50:38;99963.97;;;28.86;100.00
7441;BME280;29616;51.950;8.572;2023-06-26T11:53:15;99962.50;;;28.73;100.00
7441;BME280;29616;51.950;8.572;2023-06-26T11:55:44;99965.03;;;28.75;100.00
7441;BME280;29616;51.950;8.572;2023-06-26T11:58:14;99975.75;;;29.90;94.07
7441;BME280;29616;51.950;8.572;2023-06-26T12:00:44;99975.75;;;29.90;95.32
7441;BME280;29616;51.950;8.572;2023-06-26T12:03:17;99974.19;;;30.63;84.29
7441;BME280;29616;51.950;8.572;2023-06-26T12:05:50;99954.16;;;30.75;81.28
7441;BME280;29616;51.950;8.572;2023-06-26T12:08:22;99972.78;;;31.30;82.58
7441;BME280;29616;51.950;8.572;2023-06-26T12:10:50;99968.84;;;31.31;75.60
7441;BME280;29616;51.950;8.572;2023-06-26T12:13:22;99970.34;;;30.44;76.71
7441;BME280;29616;51.950;8.572;2023-06-26T12:15:52;99963.19;;;30.72;77.29
7441;BME280;29616;51.950;8.572;2023-06-26T12:18:25;99954.41;;;31.38;72.20
7441;BME280;29616;51.950;8.572;2023-06-26T12:20:56;99974.81;;;31.19;73.17
7441;BME280;29616;51.950;8.572;2023-06-26T12:23:32;99985.25;;;30.30;73.37
7441;BME280;29616;51.950;8.572;2023-06-26T12:26:17;99987.53;;;31.17;68.15
7441;BME280;29616;51.950;8.572;2023-06-26T12:28:46;99994.50;;;31.35;69.02
7441;BME280;29616;51.950;8.572;2023-06-26T12:31:15;99990.16;;;31.08;66.02
7441;BME280;29616;51.950;8.572;2023-06-26T12:33:47;99992.91;;;29.84;69.15
7441;BME280;29616;51.950;8.572;2023-06-26T12:36:17;99980.16;;;29.26;76.20
7441;BME280;29616;51.950;8.572;2023-06-26T12:38:48;99981.94;;;30.13;78.61
7441;BME280;29616;51.950;8.572;2023-06-26T12:41:17;99985.81;;;30.57;76.10
7441;BME280;29616;51.950;8.572;2023-06-26T12:43:48;99974.31;;;30.03;73.27
7441;BME280;29616;51.950;8.572;2023-06-26T12:46:18;99984.44;;;30.24;71.97
7441;BME280;29616;51.950;8.572;2023-06-26T12:48:49;99997.13;;;30.37;65.19
7441;BME280;29616;51.950;8.572;2023-06-26T12:51:23;99982.72;;;30.33;63.66
7441;BME280;29616;51.950;8.572;2023-06-26T12:53:54;99993.69;;;30.50;62.47
7441;BME280;29616;51.950;8.572;2023-06-26T12:56:24;99979.25;;;29.20;70.99
7441;BME280;29616;51.950;8.572;2023-06-26T12:58:54;99995.63;;;28.19;84.59
7441;BME280;29616;51.950;8.572;2023-06-26T13:01:23;99999.97;;;27.74;90.45
7441;BME280;29616;51.950;8.572;2023-06-26T13:03:55;99978.53;;;28.26;89.33
7441;BME280;29616;51.950;8.572;2023-06-26T13:06:24;99988.19;;;28.45;89.71
7441;BME280;29616;51.950;8.572;2023-06-26T13:08:52;99995.38;;;29.30;88.70
7441;BME280;29616;51.950;8.572;2023-06-26T13:11:21;99993.75;;;29.84;81.61
7441;BME280;29616;51.950;8.572;2023-06-26T13:13:52;100010.00;;;29.37;83.38
7441;BME280;29616;51.950;8.572;2023-06-26T13:16:39;100002.22;;;28.03;91.11
7441;BME280;29616;51.950;8.572;2023-06-26T13:19:12;100015.03;;;28.21;92.27
7441;BME280;29616;51.950;8.572;2023-06-26T13:21:41;100022.78;;;28.93;85.25